Time;durP1;ratioP1;P1;durP2;ratioP2;P2;SDS_P1;SDS_P2;PMS_P1;PMS_P2;Temp;Humidity;BMP_temperature;BMP_pressure;BME280_temperature;BME280_humidity;BME280_pressure;Samples;Min_cycle;Max_cycle;Signal;HPM_P1;HPM_P2
2022/07/19 00:02:07;;;;;;;10.90;5.33;;;;;;;18.81;73.63;100487.94;4204619;28;20264;-64
2022/07/19 00:04:35;;;;;;;10.43;4.87;;;;;;;18.86;70.73;100490.84;4200629;28;20249;-65
2022/07/19 00:07:01;;;;;;;9.60;4.53;;;;;;;18.88;70.78;100488.81;4200053;28;20300;-64
2022/07/19 00:09:28;;;;;;;6.90;4.10;;;;;;;18.95;71.36;100478.06;4204269;28;22091;-63
2022/07/19 00:11:55;;;;;;;9.37;4.47;;;;;;;19.05;70.07;100483.91;4196969;28;20343;-63
2022/07/19 00:14:21;;;;;;;8.63;4.30;;;;;;;18.96;70.81;100480.56;4189689;28;21297;-66
2022/07/19 00:16:48;;;;;;;11.80;5.17;;;;;;;19.07;70.38;100483.72;4199428;28;20621;-63
2022/07/19 00:19:15;;;;;;;14.07;6.50;;;;;;;19.10;69.92;100489.53;4199512;28;20248;-63
2022/07/19 00:21:42;;;;;;;11.63;5.40;;;;;;;19.07;70.90;100481.03;4181190;28;20242;-64
2022/07/19 00:24:09;;;;;;;12.67;5.13;;;;;;;19.00;71.79;100486.38;4213961;28;20232;-64
2022/07/19 00:26:35;;;;;;;8.20;4.43;;;;;;;18.97;72.27;100482.22;4193336;28;21179;-63
2022/07/19 00:29:02;;;;;;;8.70;4.70;;;;;;;18.92;72.63;100468.50;4193582;28;20309;-65
2022/07/19 00:31:29;;;;;;;8.40;4.07;;;;;;;18.85;73.40;100483.00;4198667;28;22077;-65
2022/07/19 00:33:56;;;;;;;13.00;6.10;;;;;;;18.89;74.36;100487.75;4196644;28;20429;-64
2022/07/19 00:36:22;;;;;;;10.73;6.03;;;;;;;18.79;75.31;100481.06;4197527;28;20464;-64
2022/07/19 00:38:49;;;;;;;10.97;5.40;;;;;;;18.78;75.81;100480.25;4199947;28;20236;-63
2022/07/19 00:41:15;;;;;;;8.20;4.00;;;;;;;18.73;75.93;100482.66;4190773;28;20319;-63
2022/07/19 00:43:42;;;;;;;11.00;4.83;;;;;;;18.74;76.41;100481.63;4193474;28;20317;-63
2022/07/19 00:46:19;;;;;;;7.10;4.00;;;;;;;18.74;76.60;100482.47;4195570;28;20435;-65
2022/07/19 00:48:47;;;;;;;8.70;4.20;;;;;;;18.74;76.60;100481.63;4195065;28;20243;-66
2022/07/19 00:51:16;;;;;;;12.27;4.13;;;;;;;18.67;77.11;100476.19;4196948;28;20236;-64
2022/07/19 00:53:43;;;;;;;7.87;3.87;;;;;;;18.69;78.30;100467.91;4198095;28;20362;-65
2022/07/19 00:56:12;;;;;;;6.87;3.97;;;;;;;18.68;78.65;100469.78;4195491;28;20232;-64
2022/07/19 00:58:40;;;;;;;7.17;3.80;;;;;;;18.68;78.87;100477.88;4199395;28;25013;-63
2022/07/19 01:01:07;;;;;;;9.20;3.93;;;;;;;18.72;78.30;100475.59;4194916;28;20236;-65
2022/07/19 01:03:35;;;;;;;8.03;3.83;;;;;;;18.69;78.14;100476.00;4193472;28;21212;-66
2022/07/19 01:06:03;;;;;;;6.73;3.50;;;;;;;18.67;79.21;100469.97;4201535;28;20237;-66
2022/07/19 01:08:29;;;;;;;11.63;4.63;;;;;;;18.69;79.85;100467.91;4196922;28;23286;-63
2022/07/19 01:10:56;;;;;;;9.80;4.07;;;;;;;18.61;80.32;100457.28;4196338;28;20233;-64
2022/07/19 01:13:23;;;;;;;7.03;3.70;;;;;;;18.60;80.62;100461.00;4197969;28;20233;-64
2022/07/19 01:15:50;;;;;;;10.10;4.67;;;;;;;18.62;79.17;100462.47;4196243;28;21455;-63
2022/07/19 01:18:16;;;;;;;8.83;4.03;;;;;;;18.51;79.20;100465.72;4199086;28;21024;-64
2022/07/19 01:20:43;;;;;;;10.17;3.83;;;;;;;18.46;79.24;100458.22;4197662;28;20850;-64
2022/07/19 01:23:09;;;;;;;9.57;3.73;;;;;;;18.44;79.20;100460.25;4194286;28;20291;-65
2022/07/19 01:25:37;;;;;;;11.50;4.53;;;;;;;18.43;78.70;100464.00;4196881;28;20225;-63
2022/07/19 01:28:05;;;;;;;12.17;4.10;;;;;;;18.35;78.37;100461.44;4183756;28;20533;-64
2022/07/19 01:30:32;;;;;;;8.03;4.13;;;;;;;18.34;77.91;100459.78;4196024;28;20229;-65
2022/07/19 01:32:59;;;;;;;9.73;4.30;;;;;;;18.37;77.70;100459.38;4200646;28;20447;-64
2022/07/19 01:35:26;;;;;;;10.43;4.30;;;;;;;18.30;78.04;100459.31;4196504;28;20237;-65
2022/07/19 01:37:53;;;;;;;5.17;3.40;;;;;;;18.30;78.82;100453.13;4196672;28;21500;-64
2022/07/19 01:40:19;;;;;;;8.00;4.20;;;;;;;18.24;79.08;100457.44;4196438;28;20579;-64
2022/07/19 01:42:47;;;;;;;6.30;3.83;;;;;;;18.31;78.86;100454.78;4207176;28;20232;-65
2022/07/19 01:45:14;;;;;;;6.33;3.50;;;;;;;18.30;79.26;100453.13;4193164;28;21757;-64
2022/07/19 01:47:41;;;;;;;7.73;3.97;;;;;;;18.30;79.46;100455.81;4196825;28;20300;-66
2022/07/19 01:50:10;;;;;;;8.77;3.77;;;;;;;18.25;80.31;100448.31;4199654;28;20648;-65
2022/07/19 01:52:37;;;;;;;10.17;4.13;;;;;;;18.23;80.69;100457.63;4198246;28;20296;-64
2022/07/19 01:55:08;;;;;;;6.70;3.67;;;;;;;18.26;80.93;100462.59;4192394;28;20387;-66
2022/07/19 01:57:35;;;;;;;7.13;3.60;;;;;;;18.22;80.99;100455.97;4195386;28;20287;-63
2022/07/19 02:00:03;;;;;;;8.50;3.80;;;;;;;18.21;81.79;100448.88;4196736;28;20229;-65
2022/07/19 02:02:30;;;;;;;6.80;3.93;;;;;;;18.23;81.79;100454.91;4198982;28;20233;-65
2022/07/19 02:04:57;;;;;;;7.27;4.13;;;;;;;18.23;82.08;100454.91;4202362;28;20699;-65
2022/07/19 02:07:23;;;;;;;8.50;3.33;;;;;;;18.20;82.15;100458.00;4193834;28;21085;-67
2022/07/19 02:09:50;;;;;;;8.90;4.13;;;;;;;18.22;81.98;100451.41;4192605;28;20234;-66
2022/07/19 02:12:16;;;;;;;9.47;4.23;;;;;;;18.18;82.06;100450.13;4190701;28;20292;-64
2022/07/19 02:14:43;;;;;;;8.13;4.07;;;;;;;18.16;82.00;100451.34;4197071;28;20234;-62
2022/07/19 02:17:09;;;;;;;11.13;4.63;;;;;;;18.14;82.21;100448.84;4194946;28;20888;-64
2022/07/19 02:19:36;;;;;;;8.67;4.23;;;;;;;18.08;81.25;100447.75;4210524;28;21315;-63
2022/07/19 02:22:02;;;;;;;8.23;3.90;;;;;;;18.10;80.38;100442.19;4195008;28;21960;-66
2022/07/19 02:24:29;;;;;;;9.63;4.20;;;;;;;18.12;80.76;100440.97;4201566;28;20239;-63
2022/07/19 02:26:55;;;;;;;9.83;4.47;;;;;;;18.20;79.40;100444.53;4193754;28;20246;-64
2022/07/19 02:29:22;;;;;;;9.20;4.77;;;;;;;18.22;77.98;100437.94;4200241;28;20240;-65
2022/07/19 02:31:48;;;;;;;13.47;4.57;;;;;;;18.13;79.71;100445.31;4196751;28;20233;-63
2022/07/19 02:34:15;;;;;;;10.50;4.00;;;;;;;18.03;78.51;100447.50;4194424;28;22848;-64
2022/07/19 02:36:42;;;;;;;8.43;4.60;;;;;;;18.12;77.83;100451.75;4201233;28;20391;-66
2022/07/19 02:39:08;;;;;;;9.93;4.50;;;;;;;18.23;77.31;100441.44;4201962;28;20234;-65
2022/07/19 02:41:35;;;;;;;8.23;4.30;;;;;;;18.16;77.68;100441.41;4197104;28;20540;-65
2022/07/19 02:44:02;;;;;;;9.23;4.20;;;;;;;18.19;78.42;100445.56;4188929;28;20316;-64
2022/07/19 02:46:29;;;;;;;8.57;4.37;;;;;;;18.11;79.53;100447.38;4175891;28;21103;-63
2022/07/19 02:48:55;;;;;;;14.53;4.73;;;;;;;18.08;81.17;100445.06;4216459;28;20321;-66
2022/07/19 02:51:21;;;;;;;9.43;4.70;;;;;;;18.07;82.09;100445.25;4195572;28;20855;-62
2022/07/19 02:53:48;;;;;;;11.73;6.60;;;;;;;18.04;82.94;100437.56;4199162;28;20248;-66
2022/07/19 02:56:15;;;;;;;10.80;5.77;;;;;;;17.99;83.21;100434.63;4215884;28;21774;-65
2022/07/19 02:58:41;;;;;;;11.60;5.00;;;;;;;18.03;83.27;100439.44;4198936;28;20401;-63
2022/07/19 03:01:08;;;;;;;9.43;3.97;;;;;;;18.05;83.07;100439.22;4198938;28;20237;-61
2022/07/19 03:03:44;;;;;;;11.03;4.90;;;;;;;18.06;83.70;100439.03;4193725;28;20749;-64
2022/07/19 03:06:12;;;;;;;9.23;4.27;;;;;;;18.06;83.87;100446.28;4197146;28;20412;-62
2022/07/19 03:08:38;;;;;;;10.37;4.60;;;;;;;18.03;82.92;100442.13;4197400;28;21097;-63
2022/07/19 03:11:05;;;;;;;8.10;4.03;;;;;;;18.05;82.37;100448.16;4195790;28;20236;-63
2022/07/19 03:13:32;;;;;;;10.27;4.23;;;;;;;18.06;82.05;100452.50;4213635;28;21125;-65
2022/07/19 03:15:59;;;;;;;7.57;4.60;;;;;;;18.06;82.29;100457.88;4198335;28;20237;-63
2022/07/19 03:18:25;;;;;;;10.60;4.27;;;;;;;18.08;82.13;100458.53;4198016;28;20253;-64
2022/07/19 03:20:52;;;;;;;10.87;4.97;;;;;;;18.05;82.84;100458.94;4201805;28;20240;-62
2022/07/19 03:23:18;;;;;;;9.57;4.43;;;;;;;18.09;83.27;100457.50;4194846;28;22558;-66
2022/07/19 03:25:45;;;;;;;10.13;5.53;;;;;;;18.13;83.45;100468.72;4199037;28;20262;-64
2022/07/19 03:28:12;;;;;;;8.97;4.73;;;;;;;18.17;83.81;100469.16;4200136;28;20238;-64
2022/07/19 03:30:39;;;;;;;12.20;5.30;;;;;;;18.10;82.62;100461.88;4199043;28;23457;-64
2022/07/19 03:33:05;;;;;;;12.70;5.57;;;;;;;18.17;80.01;100463.78;4207872;28;20400;-65
2022/07/19 03:35:32;;;;;;;12.83;5.23;;;;;;;18.38;75.95;100462.91;4204795;28;20724;-64
2022/07/19 03:37:58;;;;;;;11.47;5.00;;;;;;;18.41;75.47;100470.63;4197904;28;21107;-63
2022/07/19 03:40:25;;;;;;;13.00;4.87;;;;;;;18.46;75.21;100460.91;4198205;28;20237;-66
2022/07/19 03:42:52;;;;;;;11.57;5.10;;;;;;;18.53;74.03;100464.47;4203790;28;20397;-66
2022/07/19 03:45:18;;;;;;;11.93;5.17;;;;;;;18.51;75.10;100471.09;4216668;28;20392;-63
2022/07/19 03:47:45;;;;;;;13.40;4.73;;;;;;;18.66;73.99;100470.97;4211389;28;20875;-66
2022/07/19 03:50:11;;;;;;;9.97;4.43;;;;;;;18.73;71.95;100469.16;4194131;28;22816;-64
2022/07/19 03:52:38;;;;;;;13.20;5.00;;;;;;;18.89;69.57;100466.19;4198233;28;20370;-64
2022/07/19 03:55:05;;;;;;;11.10;5.13;;;;;;;18.88;69.26;100467.22;4195016;28;20234;-66
2022/07/19 03:57:32;;;;;;;13.77;5.63;;;;;;;18.86;70.99;100463.06;4194601;28;20290;-65
2022/07/19 03:59:58;;;;;;;14.43;5.30;;;;;;;18.94;71.30;100465.59;4206278;28;20587;-64
2022/07/19 04:02:25;;;;;;;11.10;5.00;;;;;;;19.04;69.79;100466.06;4198908;28;20234;-65
2022/07/19 04:04:52;;;;;;;11.53;4.93;;;;;;;19.14;68.37;100461.13;4195634;28;20233;-64
2022/07/19 04:07:19;;;;;;;14.67;5.43;;;;;;;19.26;67.65;100461.41;4189108;28;22638;-64
2022/07/19 04:09:45;;;;;;;11.83;5.20;;;;;;;19.18;67.06;100458.88;4203447;28;21683;-64
2022/07/19 04:12:12;;;;;;;12.90;5.33;;;;;;;19.11;67.25;100450.75;4193370;28;20256;-65
2022/07/19 04:14:39;;;;;;;16.37;5.00;;;;;;;19.08;67.50;100459.25;4214964;28;20238;-64
2022/07/19 04:17:05;;;;;;;18.83;5.43;;;;;;;19.18;67.37;100461.56;4200386;28;20430;-64
2022/07/19 04:19:32;;;;;;;9.60;4.70;;;;;;;19.33;67.74;100453.31;4199520;28;20320;-64
2022/07/19 04:21:58;;;;;;;13.77;4.93;;;;;;;19.43;67.52;100447.53;4191081;28;20325;-64
2022/07/19 04:24:25;;;;;;;14.83;6.07;;;;;;;19.59;66.04;100447.19;4195397;28;20670;-63
2022/07/19 04:26:51;;;;;;;10.13;4.80;;;;;;;19.75;65.81;100452.22;4197123;28;22371;-64
2022/07/19 04:29:18;;;;;;;14.07;4.70;;;;;;;19.97;64.26;100460.16;4195217;28;20236;-65
2022/07/19 04:31:45;;;;;;;12.47;5.03;;;;;;;20.10;64.27;100464.75;4192736;28;20476;-68
2022/07/19 04:34:11;;;;;;;15.33;4.97;;;;;;;20.12;63.15;100457.28;4210030;28;25887;-67
2022/07/19 04:36:38;;;;;;;12.60;5.27;;;;;;;20.05;63.17;100457.25;4198196;28;20235;-64
2022/07/19 04:39:05;;;;;;;18.10;5.50;;;;;;;20.06;63.56;100458.09;4195880;28;20276;-63
2022/07/19 04:41:31;;;;;;;10.30;4.80;;;;;;;20.13;63.55;100454.34;4194727;28;20671;-64
2022/07/19 04:43:58;;;;;;;12.17;4.93;;;;;;;20.15;63.26;100456.84;4192152;28;20506;-64
2022/07/19 04:46:25;;;;;;;18.40;5.83;;;;;;;19.98;63.76;100462.66;4189736;28;20244;-64
2022/07/19 04:48:52;;;;;;;16.30;5.30;;;;;;;19.92;64.06;100460.75;4198490;28;20413;-65
2022/07/19 04:51:18;;;;;;;16.73;6.77;;;;;;;19.79;64.26;100458.88;4207180;28;20861;-63
2022/07/19 04:53:45;;;;;;;14.17;6.37;;;;;;;19.70;65.02;100465.50;4202885;28;22709;-64
2022/07/19 04:56:11;;;;;;;15.80;5.23;;;;;;;19.71;65.53;100466.34;4186506;28;21755;-65
2022/07/19 04:58:39;;;;;;;15.37;5.43;;;;;;;19.71;66.23;100463.63;4195495;28;20279;-64
2022/07/19 05:01:05;;;;;;;15.30;5.73;;;;;;;19.55;66.95;100462.97;4192204;28;20355;-63
2022/07/19 05:03:32;;;;;;;19.77;5.90;;;;;;;19.43;67.64;100469.97;4192226;28;20296;-65
2022/07/19 05:05:58;;;;;;;18.90;5.83;;;;;;;19.40;67.98;100465.81;4209907;28;21054;-65
2022/07/19 05:08:25;;;;;;;15.83;5.33;;;;;;;19.44;68.03;100465.41;4188429;28;20581;-64
2022/07/19 05:10:51;;;;;;;14.37;5.40;;;;;;;19.53;67.58;100469.59;4206178;28;25053;-64
2022/07/19 05:13:18;;;;;;;14.30;5.60;;;;;;;19.56;67.64;100467.31;4198979;28;21987;-65
2022/07/19 05:15:44;;;;;;;12.53;5.83;;;;;;;19.61;67.56;100469.41;4200210;28;21268;-64
2022/07/19 05:18:11;;;;;;;16.53;5.30;;;;;;;19.64;67.34;100463.59;4195867;28;20229;-67
2022/07/19 05:20:39;;;;;;;15.20;5.00;;;;;;;19.63;67.58;100469.22;4187481;28;22461;-63
2022/07/19 05:23:07;;;;;;;15.97;5.47;;;;;;;19.65;67.35;100467.97;4189047;28;20563;-64
2022/07/19 05:25:33;;;;;;;14.67;5.53;;;;;;;19.67;67.46;100465.91;4193413;28;21738;-66
2022/07/19 05:28:00;;;;;;;17.20;5.90;;;;;;;19.71;67.18;100459.06;4203292;28;21240;-63
2022/07/19 05:30:29;;;;;;;16.17;5.70;;;;;;;19.78;67.28;100454.53;4200102;28;20304;-65
2022/07/19 05:32:56;;;;;;;20.03;6.27;;;;;;;19.71;67.41;100455.53;4192311;28;20835;-62
2022/07/19 05:35:23;;;;;;;13.87;5.63;;;;;;;19.73;67.61;100454.28;4197606;28;20821;-64
2022/07/19 05:37:50;;;;;;;17.07;5.40;;;;;;;19.82;67.11;100452.25;4195876;28;20239;-63
2022/07/19 05:40:17;;;;;;;13.87;6.10;;;;;;;19.98;66.48;100456.44;4195604;28;20268;-63
2022/07/19 05:42:43;;;;;;;25.53;5.90;;;;;;;19.92;66.49;100457.25;4201597;28;20520;-64
2022/07/19 05:45:10;;;;;;;17.03;5.63;;;;;;;19.88;66.92;100454.13;4195926;28;20245;-63
2022/07/19 05:47:36;;;;;;;19.63;5.77;;;;;;;19.91;67.94;100455.59;4181699;28;21355;-64
2022/07/19 05:50:05;;;;;;;15.87;5.73;;;;;;;19.91;67.07;100458.28;4195959;28;20275;-65
2022/07/19 05:52:32;;;;;;;12.47;5.17;;;;;;;19.98;66.40;100461.81;4198714;28;20244;-66
2022/07/19 05:55:05;;;;;;;13.83;4.90;;;;;;;20.05;64.98;100459.97;4201358;28;20241;-67
2022/07/19 05:57:31;;;;;;;12.03;4.63;;;;;;;19.94;65.24;100457.88;4198290;28;20340;-73
2022/07/19 05:59:58;;;;;;;11.33;5.30;;;;;;;19.97;64.83;100465.56;4192613;28;20317;-68
2022/07/19 06:02:25;;;;;;;12.40;5.43;;;;;;;19.95;64.24;100462.25;4203680;28;20253;-75
2022/07/19 06:04:51;;;;;;;14.03;5.17;;;;;;;20.01;64.72;100466.81;4197507;28;20280;-79
2022/07/19 06:07:18;;;;;;;10.13;4.87;;;;;;;20.08;66.11;100467.66;4205354;28;20648;-76
2022/07/19 06:09:44;;;;;;;14.50;4.87;;;;;;;20.08;66.07;100480.31;4199201;28;20245;-72
2022/07/19 06:12:11;;;;;;;15.47;4.93;;;;;;;19.88;67.21;100474.88;4201172;28;20739;-73
2022/07/19 06:14:37;;;;;;;19.30;5.47;;;;;;;19.92;67.89;100484.25;4185646;28;20301;-73
2022/07/19 06:17:05;;;;;;;10.73;5.43;;;;;;;20.11;66.83;100486.16;4198212;28;20241;-70
2022/07/19 06:19:31;;;;;;;14.00;5.50;;;;;;;20.29;67.54;100495.53;4201915;28;20232;-71
2022/07/19 06:21:58;;;;;;;16.40;6.20;;;;;;;20.29;68.23;100488.22;4197784;28;25730;-72
2022/07/19 06:24:24;;;;;;;12.83;5.60;;;;;;;20.24;67.95;100486.16;4197019;28;20252;-75
2022/07/19 06:26:51;;;;;;;15.97;5.13;;;;;;;20.36;67.45;100485.53;4196236;28;20241;-70
2022/07/19 06:29:17;;;;;;;12.67;5.43;;;;;;;20.24;66.98;100488.03;4203149;28;20230;-67
2022/07/19 06:31:44;;;;;;;19.00;5.97;;;;;;;20.35;68.44;100481.19;4199508;28;20813;-69
2022/07/19 06:34:10;;;;;;;9.80;5.50;;;;;;;20.31;67.72;100479.94;4194358;28;22425;-69
2022/07/19 06:36:39;;;;;;;14.27;5.77;;;;;;;20.31;67.59;100477.22;4201135;28;20240;-69
2022/07/19 06:39:06;;;;;;;11.70;5.00;;;;;;;20.27;66.08;100471.41;4201408;28;21084;-71
2022/07/19 06:41:32;;;;;;;11.93;5.00;;;;;;;20.43;65.97;100479.09;4184798;28;21220;-73
2022/07/19 06:43:59;;;;;;;16.93;5.27;;;;;;;20.41;65.95;100477.63;4205312;28;20264;-70
2022/07/19 06:46:25;;;;;;;16.43;6.00;;;;;;;20.36;66.92;100485.53;4199418;28;20292;-70
2022/07/19 06:48:52;;;;;;;13.03;5.47;;;;;;;20.19;68.28;100485.94;4195262;28;20292;-70
2022/07/19 06:51:19;;;;;;;14.37;5.53;;;;;;;20.08;68.65;100477.63;4203327;28;20332;-70
2022/07/19 06:53:45;;;;;;;17.07;5.83;;;;;;;20.12;68.09;100479.72;4195760;28;20749;-69
2022/07/19 06:56:12;;;;;;;12.67;5.37;;;;;;;20.16;67.35;100489.06;4205710;28;20291;-71
2022/07/19 06:58:38;;;;;;;13.50;5.20;;;;;;;20.28;67.47;100483.06;4188605;28;20311;-72
2022/07/19 07:01:08;;;;;;;14.33;5.87;;;;;;;20.06;68.79;100480.53;4196472;28;21108;-73
2022/07/19 07:03:36;;;;;;;9.87;5.10;;;;;;;19.99;69.14;100487.78;4204245;28;20283;-72
2022/07/19 07:06:03;;;;;;;12.07;5.37;;;;;;;20.04;70.19;100485.31;4206119;28;20239;-72
2022/07/19 07:08:30;;;;;;;15.67;5.60;;;;;;;20.07;68.58;100481.38;4214557;28;20242;-73
2022/07/19 07:10:56;;;;;;;12.30;5.10;;;;;;;20.13;68.69;100481.38;4209365;28;20403;-71
2022/07/19 07:13:23;;;;;;;12.57;5.90;;;;;;;20.32;67.90;100490.53;4185644;28;21132;-72
2022/07/19 07:15:49;;;;;;;15.50;5.53;;;;;;;20.27;67.90;100482.19;4207058;28;20622;-73
2022/07/19 07:18:16;;;;;;;12.53;5.37;;;;;;;20.43;67.20;100478.25;4199440;28;20237;-72
2022/07/19 07:20:42;;;;;;;13.83;5.53;;;;;;;20.69;65.15;100484.72;4228867;28;20229;-72
2022/07/19 07:23:09;;;;;;;15.20;5.57;;;;;;;20.83;65.02;100486.34;4199620;28;20235;-71
2022/07/19 07:25:35;;;;;;;14.67;5.80;;;;;;;21.04;62.80;100485.25;4201568;28;20301;-72
2022/07/19 07:28:02;;;;;;;14.47;5.67;;;;;;;21.17;62.42;100482.53;4197254;28;20241;-72
2022/07/19 07:30:29;;;;;;;18.87;7.40;;;;;;;21.31;62.21;100487.91;4200690;28;20282;-72
2022/07/19 07:32:55;;;;;;;11.63;5.77;;;;;;;21.25;63.97;100481.44;4190868;28;21433;-71
2022/07/19 07:35:22;;;;;;;18.50;6.63;;;;;;;21.21;63.78;100480.19;4182624;28;20234;-72
2022/07/19 07:37:48;;;;;;;16.07;6.20;;;;;;;21.30;63.04;100478.91;4191438;28;21814;-73
2022/07/19 07:40:15;;;;;;;12.57;6.00;;;;;;;21.24;64.25;100474.38;4210713;28;20265;-56
2022/07/19 07:42:42;;;;;;;12.83;5.77;;;;;;;21.50;63.59;100476.16;4201878;28;20500;-47
2022/07/19 07:45:09;;;;;;;12.23;5.07;;;;;;;21.90;61.85;100470.53;4192182;28;20251;-49
2022/07/19 07:47:36;;;;;;;16.27;6.67;;;;;;;21.96;60.95;100474.22;4198417;28;21179;-50
2022/07/19 07:50:05;;;;;;;11.90;5.67;;;;;;;22.11;59.52;100485.59;4201759;28;20266;-46
2022/07/19 07:52:32;;;;;;;15.00;6.13;;;;;;;22.17;61.05;100479.28;4210419;28;20380;-47
2022/07/19 07:54:59;;;;;;;9.70;5.63;;;;;;;22.17;61.66;100487.41;4202414;28;20235;-48
2022/07/19 07:57:45;;;;;;;12.60;5.37;;;;;;;22.04;60.44;100477.50;4213500;28;25640;-46
2022/07/19 08:00:13;;;;;;;12.20;5.00;;;;;;;22.22;60.47;100479.50;4215338;28;20243;-48
2022/07/19 08:02:42;;;;;;;12.37;4.87;;;;;;;22.17;61.53;100481.16;4189744;28;21425;-45
2022/07/19 08:05:09;;;;;;;13.17;4.83;;;;;;;22.42;61.00;100484.75;4193322;28;20636;-48
2022/07/19 08:07:37;;;;;;;11.97;4.83;;;;;;;22.30;59.87;100492.75;4195945;28;24759;-48
2022/07/19 08:10:06;;;;;;;12.30;5.00;;;;;;;22.44;60.95;100493.47;4200332;28;20241;-62
2022/07/19 08:12:33;;;;;;;11.23;4.43;;;;;;;22.27;57.66;100504.06;4190954;28;20239;-63
2022/07/19 08:14:59;;;;;;;10.17;3.93;;;;;;;22.38;57.40;100499.78;4193824;28;20278;-65
2022/07/19 08:17:26;;;;;;;9.50;4.13;;;;;;;22.59;54.85;100506.69;4202784;28;20237;-63
2022/07/19 08:19:52;;;;;;;10.67;3.97;;;;;;;22.93;53.67;100507.22;4187783;28;20262;-62
2022/07/19 08:22:19;;;;;;;9.63;4.07;;;;;;;23.24;53.09;100502.72;4194255;28;20280;-62
2022/07/19 08:24:46;;;;;;;8.07;4.47;;;;;;;23.23;54.98;100506.53;4198004;28;20241;-62
2022/07/19 08:27:13;;;;;;;8.23;4.23;;;;;;;23.53;52.90;100509.25;4197432;28;25310;-62
2022/07/19 08:29:40;;;;;;;12.77;4.47;;;;;;;23.14;53.33;100500.56;4218548;28;20512;-63
2022/07/19 08:32:06;;;;;;;10.70;4.17;;;;;;;23.39;54.19;100504.00;4193031;28;20237;-64
2022/07/19 08:34:33;;;;;;;8.47;4.27;;;;;;;23.69;53.01;100511.34;4179206;28;20704;-65
2022/07/19 08:37:00;;;;;;;9.27;4.30;;;;;;;23.76;52.77;100506.69;4195973;28;21952;-72
2022/07/19 08:39:26;;;;;;;10.83;4.10;;;;;;;24.12;49.56;100504.91;4197985;28;20742;-70
2022/07/19 08:41:54;;;;;;;10.30;4.47;;;;;;;24.35;49.21;100512.28;4175042;28;20653;-72
2022/07/19 08:44:21;;;;;;;13.87;4.30;;;;;;;24.15;47.78;100504.44;4231093;28;21239;-70
2022/07/19 08:46:49;;;;;;;8.30;4.10;;;;;;;24.41;48.04;100500.47;4202988;28;21739;-71
2022/07/19 08:49:16;;;;;;;9.20;4.00;;;;;;;24.93;47.23;100505.22;4194318;28;20624;-69
2022/07/19 08:51:43;;;;;;;8.90;4.20;;;;;;;24.95;46.84;100511.25;4196729;28;21273;-70
2022/07/19 08:54:09;;;;;;;8.27;4.00;;;;;;;26.14;43.57;100503.56;4224454;28;20295;-68
2022/07/19 08:59:23;;;;;;;10.52;4.10;;;;;;;26.02;42.08;100500.91;4212910;28;20438;-69
2022/07/19 09:01:50;;;;;;;16.93;3.87;;;;;;;26.55;40.66;100501.53;4202344;28;20235;-61
2022/07/19 09:04:21;;;;;;;14.43;3.87;;;;;;;26.52;40.34;100495.47;4208595;28;20233;-69
2022/07/19 09:06:47;;;;;;;11.97;3.70;;;;;;;26.59;42.28;100494.50;4207484;28;20350;-49
2022/07/19 09:09:16;;;;;;;10.20;3.57;;;;;;;26.78;40.11;100506.78;4233253;28;20302;-61
2022/07/19 09:11:48;;;;;;;12.77;4.43;;;;;;;26.90;41.01;100493.03;4218529;28;21211;-63
2022/07/19 09:14:17;;;;;;;9.47;3.80;;;;;;;27.37;40.72;100498.06;4200809;28;21762;-65
2022/07/19 09:17:01;;;;;;;11.07;4.47;;;;;;;27.41;39.72;100498.38;4200217;28;20296;-64
2022/07/19 09:19:32;;;;;;;11.10;4.50;;;;;;;27.06;38.60;100499.53;4223691;28;21291;-65
2022/07/19 09:22:04;;;;;;;10.20;3.60;;;;;;;26.81;39.80;100502.72;4211452;28;21773;-60
2022/07/19 09:24:33;;;;;;;8.87;3.63;;;;;;;26.60;40.01;100498.88;4198038;28;22054;-63
2022/07/19 09:27:14;;;;;;;11.63;3.43;;;;;;;26.23;40.72;100493.91;4204641;28;20232;-64
2022/07/19 09:29:43;;;;;;;9.00;3.97;;;;;;;26.32;40.54;100495.16;4204190;28;20236;-63
2022/07/19 09:32:20;;;;;;;13.50;3.67;;;;;;;26.29;39.33;100495.63;4212254;28;22855;-65
2022/07/19 09:34:52;;;;;;;8.07;3.73;;;;;;;26.34;39.95;100484.81;4218283;28;20270;-65
2022/07/19 09:37:27;;;;;;;7.30;3.67;;;;;;;26.38;38.77;100490.59;4197234;28;20340;-64
2022/07/19 09:39:56;;;;;;;9.33;3.50;;;;;;;25.98;41.00;100478.75;4214127;28;20223;-61
2022/07/19 09:42:44;;;;;;;9.60;3.33;;;;;;;25.81;41.28;100491.50;4193999;28;20323;-62
2022/07/19 09:45:13;;;;;;;6.23;2.83;;;;;;;25.85;41.53;100495.41;4200353;28;21093;-64
2022/07/19 09:47:45;;;;;;;5.90;3.20;;;;;;;25.83;41.29;100492.09;4217548;28;20341;-62
2022/07/19 09:50:16;;;;;;;6.37;2.77;;;;;;;25.67;42.19;100478.16;4197212;28;25140;-62
2022/07/19 09:52:45;;;;;;;9.60;3.70;;;;;;;25.82;40.33;100484.97;4197642;28;20411;-63
2022/07/19 09:55:13;;;;;;;5.60;2.70;;;;;;;25.90;39.10;100481.91;4196525;28;20494;-64
2022/07/19 09:57:44;;;;;;;9.63;2.30;;;;;;;25.89;38.80;100474.78;4197247;28;20329;-62
2022/07/19 10:00:12;;;;;;;7.47;2.60;;;;;;;25.79;39.63;100480.84;4196716;28;20292;-62
2022/07/19 10:02:41;;;;;;;7.53;2.77;;;;;;;26.06;38.78;100480.28;4196431;28;20712;-65
2022/07/19 10:05:10;;;;;;;10.20;3.00;;;;;;;25.90;39.46;100474.53;4200611;28;20236;-62
2022/07/19 10:07:37;;;;;;;8.27;2.60;;;;;;;25.48;38.97;100468.53;4192295;28;20241;-65
2022/07/19 10:10:07;;;;;;;6.43;3.60;;;;;;;25.81;39.86;100466.97;4193319;28;21403;-65
2022/07/19 10:12:33;;;;;;;8.07;4.10;;;;;;;26.01;38.93;100472.81;4200222;28;20236;-62
2022/07/19 10:15:00;;;;;;;5.17;2.60;;;;;;;26.01;40.48;100461.91;4195092;28;20240;-64
2022/07/19 10:17:39;;;;;;;8.40;2.90;;;;;;;26.07;39.70;100469.09;4196731;28;20229;-64
2022/07/19 10:20:06;;;;;;;8.97;2.60;;;;;;;26.07;38.58;100460.91;4186527;28;20241;-62
2022/07/19 10:22:33;;;;;;;7.70;3.07;;;;;;;25.96;39.15;100463.72;4208837;28;20230;-64
2022/07/19 10:25:11;;;;;;;8.53;3.10;;;;;;;25.93;40.18;100464.22;4192625;28;20789;-66
2022/07/19 10:27:45;;;;;;;7.47;2.53;;;;;;;26.15;38.39;100467.03;4179641;28;22038;-63
2022/07/19 10:30:12;;;;;;;5.73;2.50;;;;;;;25.77;40.13;100463.06;4189776;28;20234;-63
2022/07/19 10:32:44;;;;;;;8.03;3.50;;;;;;;25.72;39.38;100454.81;4191481;28;26519;-63
2022/07/19 10:35:21;;;;;;;8.33;3.03;;;;;;;25.69;41.43;100448.78;4212505;28;20367;-63
2022/07/19 10:38:07;;;;;;;10.13;2.83;;;;;;;26.03;40.48;100448.84;4198003;28;21255;-62
2022/07/19 10:40:44;;;;;;;7.83;2.60;;;;;;;25.93;40.40;100448.69;4194943;28;20233;-65
2022/07/19 10:43:19;;;;;;;7.03;3.03;;;;;;;25.85;39.34;100447.16;4198188;28;23577;-64
2022/07/19 10:46:07;;;;;;;7.13;3.10;;;;;;;25.86;40.32;100443.38;4195226;28;20225;-61
2022/07/19 10:48:39;;;;;;;7.17;3.10;;;;;;;26.02;41.05;100447.19;4200346;28;20233;-63
2022/07/19 10:51:10;;;;;;;7.77;2.97;;;;;;;26.14;40.86;100443.56;4195082;28;23048;-63
2022/07/19 10:53:42;;;;;;;7.27;3.77;;;;;;;25.82;40.08;100441.34;4196651;28;20235;-62
2022/07/19 10:56:19;;;;;;;8.17;3.13;;;;;;;25.77;41.81;100439.38;4200214;28;20233;-63
2022/07/19 10:58:53;;;;;;;6.23;3.10;;;;;;;25.88;40.74;100438.50;4196092;28;20304;-62
2022/07/19 11:01:21;;;;;;;9.73;3.20;;;;;;;26.14;40.83;100435.38;4191292;28;20250;-62
2022/07/19 11:03:50;;;;;;;6.70;3.20;;;;;;;26.30;41.08;100437.28;4203613;28;22602;-64
2022/07/19 11:06:25;;;;;;;10.17;3.70;;;;;;;26.19;40.18;100430.00;4197013;28;21277;-62
2022/07/19 11:08:56;;;;;;;8.47;3.20;;;;;;;26.46;40.58;100432.88;4197407;28;20679;-64
2022/07/19 11:11:26;;;;;;;5.00;2.83;;;;;;;26.72;39.97;100428.66;4178000;28;20244;-63
2022/07/19 11:13:55;;;;;;;13.10;3.53;;;;;;;26.81;40.19;100434.47;4185564;28;20717;-63
2022/07/19 11:16:24;;;;;;;15.13;3.53;;;;;;;26.90;40.48;100424.75;4195408;28;21205;-65
2022/07/19 11:18:51;;;;;;;8.10;3.00;;;;;;;27.02;39.43;100432.84;4173421;28;20756;-62
2022/07/19 11:21:17;;;;;;;7.87;3.63;;;;;;;27.07;40.53;100430.19;4201354;28;20267;-62
2022/07/19 11:23:44;;;;;;;7.25;3.45;;;;;;;27.08;39.13;100431.81;4198066;28;23706;-64
2022/07/19 11:26:13;;;;;;;6.93;3.50;;;;;;;27.22;37.79;100438.56;4201163;28;20233;-65